sensor_id;sensor_type;location;lat;lon;timestamp;pressure;altitude;pressure_sealevel;temperature;humidity
38022;BME280;23832;43.216;27.946;2023-02-19T00:01:22;100784.56;;;15.05;52.16
38022;BME280;23832;43.216;27.946;2023-02-19T00:03:24;100780.28;;;15.04;52.14
38022;BME280;23832;43.216;27.946;2023-02-19T00:05:28;100776.63;;;15.05;52.22
38022;BME280;23832;43.216;27.946;2023-02-19T00:07:30;100778.66;;;15.03;52.25
38022;BME280;23832;43.216;27.946;2023-02-19T00:09:32;100774.16;;;15.03;52.15
38022;BME280;23832;43.216;27.946;2023-02-19T00:11:33;100767.41;;;15.01;52.11
38022;BME280;23832;43.216;27.946;2023-02-19T00:13:35;100760.28;;;15.01;52.27
38022;BME280;23832;43.216;27.946;2023-02-19T00:15:37;100768.41;;;15.00;52.21
38022;BME280;23832;43.216;27.946;2023-02-19T00:17:39;100765.13;;;14.98;52.24
38022;BME280;23832;43.216;27.946;2023-02-19T00:19:40;100761.88;;;14.96;52.08
38022;BME280;23832;43.216;27.946;2023-02-19T00:21:43;100748.00;;;14.94;52.09
38022;BME280;23832;43.216;27.946;2023-02-19T00:23:47;100754.50;;;14.91;52.25
38022;BME280;23832;43.216;27.946;2023-02-19T00:25:49;100755.72;;;14.89;52.21
38022;BME280;23832;43.216;27.946;2023-02-19T00:27:50;100758.38;;;14.89;52.37
38022;BME280;23832;43.216;27.946;2023-02-19T00:29:52;100754.06;;;14.88;52.41
38022;BME280;23832;43.216;27.946;2023-02-19T00:31:54;100750.81;;;14.86;52.53
38022;BME280;23832;43.216;27.946;2023-02-19T00:33:56;100742.22;;;14.84;52.48
38022;BME280;23832;43.216;27.946;2023-02-19T00:35:58;100737.75;;;14.84;52.45
38022;BME280;23832;43.216;27.946;2023-02-19T00:38:02;100737.75;;;14.84;52.61
38022;BME280;23832;43.216;27.946;2023-02-19T00:40:04;100733.44;;;14.83;52.54
38022;BME280;23832;43.216;27.946;2023-02-19T00:42:05;100716.06;;;14.81;52.70
38022;BME280;23832;43.216;27.946;2023-02-19T00:44:09;100725.06;;;14.80;52.67
38022;BME280;23832;43.216;27.946;2023-02-19T00:46:10;100726.28;;;14.77;52.53
38022;BME280;23832;43.216;27.946;2023-02-19T00:48:12;100722.00;;;14.76;52.74
38022;BME280;23832;43.216;27.946;2023-02-19T00:50:14;100721.16;;;14.75;52.62
38022;BME280;23832;43.216;27.946;2023-02-19T00:52:15;100701.78;;;14.75;52.59
38022;BME280;23832;43.216;27.946;2023-02-19T00:54:18;100697.28;;;14.75;52.56
38022;BME280;23832;43.216;27.946;2023-02-19T00:56:21;100691.97;;;14.75;52.42
38022;BME280;23832;43.216;27.946;2023-02-19T00:58:23;100696.47;;;14.75;52.54
38022;BME280;23832;43.216;27.946;2023-02-19T01:00:24;100692.34;;;14.72;52.66
38022;BME280;23832;43.216;27.946;2023-02-19T01:02:26;100683.56;;;14.72;52.24
38022;BME280;23832;43.216;27.946;2023-02-19T01:04:27;100681.13;;;14.70;52.51
38022;BME280;23832;43.216;27.946;2023-02-19T01:06:29;100689.09;;;14.70;52.45
38022;BME280;23832;43.216;27.946;2023-02-19T01:08:32;100678.69;;;14.69;52.58
38022;BME280;23832;43.216;27.946;2023-02-19T01:10:35;100677.84;;;14.68;52.71
38022;BME280;23832;43.216;27.946;2023-02-19T01:12:38;100677.25;;;14.66;52.40
38022;BME280;23832;43.216;27.946;2023-02-19T01:14:39;100680.72;;;14.67;52.78
38022;BME280;23832;43.216;27.946;2023-02-19T01:16:41;100671.94;;;14.66;52.71
38022;BME280;23832;43.216;27.946;2023-02-19T01:18:43;100662.34;;;14.65;52.53
38022;BME280;23832;43.216;27.946;2023-02-19T01:20:45;100674.59;;;14.66;52.83
38022;BME280;23832;43.216;27.946;2023-02-19T01:22:47;100662.53;;;14.64;52.54
38022;BME280;23832;43.216;27.946;2023-02-19T01:24:49;100666.84;;;14.65;52.65
38022;BME280;23832;43.216;27.946;2023-02-19T01:26:52;100664.78;;;14.67;52.58
38022;BME280;23832;43.216;27.946;2023-02-19T01:28:53;100662.97;;;14.67;52.79
38022;BME280;23832;43.216;27.946;2023-02-19T01:30:55;100651.31;;;14.68;52.74
38022;BME280;23832;43.216;27.946;2023-02-19T01:33:00;100643.38;;;14.68;52.76
38022;BME280;23832;43.216;27.946;2023-02-19T01:35:02;100651.13;;;14.70;52.72
38022;BME280;23832;43.216;27.946;2023-02-19T01:37:04;100645.81;;;14.70;52.51
38022;BME280;23832;43.216;27.946;2023-02-19T01:39:10;100659.09;;;14.70;52.98
38022;BME280;23832;43.216;27.946;2023-02-19T01:41:13;100646.63;;;14.70;52.87
38022;BME280;23832;43.216;27.946;2023-02-19T01:43:16;100634.38;;;14.69;52.67
38022;BME280;23832;43.216;27.946;2023-02-19T01:45:20;100635.19;;;14.70;52.75
38022;BME280;23832;43.216;27.946;2023-02-19T01:47:23;100627.25;;;14.70;52.78
38022;BME280;23832;43.216;27.946;2023-02-19T01:49:26;100622.75;;;14.70;53.00
38022;BME280;23832;43.216;27.946;2023-02-19T01:51:28;100630.72;;;14.70;52.74
38022;BME280;23832;43.216;27.946;2023-02-19T01:53:32;100623.78;;;14.69;52.77
38022;BME280;23832;43.216;27.946;2023-02-19T01:55:35;100627.44;;;14.68;53.01
38022;BME280;23832;43.216;27.946;2023-02-19T01:57:38;100627.25;;;14.70;52.98
38022;BME280;23832;43.216;27.946;2023-02-19T01:59:43;100629.88;;;14.70;52.87
38022;BME280;23832;43.216;27.946;2023-02-19T02:01:45;100624.38;;;14.71;52.88
38022;BME280;23832;43.216;27.946;2023-02-19T02:03:47;100616.22;;;14.73;52.90
38022;BME280;23832;43.216;27.946;2023-02-19T02:05:52;100620.53;;;14.74;52.84
38022;BME280;23832;43.216;27.946;2023-02-19T02:07:56;100609.91;;;14.74;52.81
38022;BME280;23832;43.216;27.946;2023-02-19T02:10:16;100614.38;;;14.73;52.94
38022;BME280;23832;43.216;27.946;2023-02-19T02:12:20;100615.03;;;14.75;52.91
38022;BME280;23832;43.216;27.946;2023-02-19T02:14:24;100624.59;;;14.76;52.88
38022;BME280;23832;43.216;27.946;2023-02-19T02:16:28;100617.25;;;14.79;52.79
38022;BME280;23832;43.216;27.946;2023-02-19T02:18:36;100617.25;;;14.79;52.60
38022;BME280;23832;43.216;27.946;2023-02-19T02:20:45;100625.22;;;14.79;52.72
38022;BME280;23832;43.216;27.946;2023-02-19T02:22:54;100625.22;;;14.79;52.75
38022;BME280;23832;43.216;27.946;2023-02-19T02:27:30;100629.50;;;14.80;52.79
38022;BME280;23832;43.216;27.946;2023-02-19T02:31:53;100622.56;;;14.79;52.81
38022;BME280;23832;43.216;27.946;2023-02-19T02:33:57;100621.75;;;14.78;52.96
38022;BME280;23832;43.216;27.946;2023-02-19T02:36:02;100609.28;;;14.79;52.76
38022;BME280;23832;43.216;27.946;2023-02-19T02:38:06;100620.94;;;14.77;52.80
38022;BME280;23832;43.216;27.946;2023-02-19T02:40:09;100619.91;;;14.79;52.95
38022;BME280;23832;43.216;27.946;2023-02-19T02:42:11;100620.13;;;14.77;52.88
38022;BME280;23832;43.216;27.946;2023-02-19T02:44:32;100619.31;;;14.76;52.92
38022;BME280;23832;43.216;27.946;2023-02-19T02:46:34;100628.28;;;14.75;52.89
38022;BME280;23832;43.216;27.946;2023-02-19T02:48:39;100622.97;;;14.75;53.02
38022;BME280;23832;43.216;27.946;2023-02-19T02:50:45;100625.63;;;14.75;52.91
38022;BME280;23832;43.216;27.946;2023-02-19T02:52:46;100621.34;;;14.74;52.90
38022;BME280;23832;43.216;27.946;2023-02-19T02:55:21;100627.66;;;14.73;52.96
38022;BME280;23832;43.216;27.946;2023-02-19T02:57:23;100619.50;;;14.75;52.75
38022;BME280;23832;43.216;27.946;2023-02-19T02:59:25;100627.66;;;14.73;52.82
38022;BME280;23832;43.216;27.946;2023-02-19T03:01:29;100631.31;;;14.72;52.56
38022;BME280;23832;43.216;27.946;2023-02-19T03:03:52;100629.88;;;14.70;53.07
38022;BME280;23832;43.216;27.946;2023-02-19T03:05:56;100630.09;;;14.68;52.89
38022;BME280;23832;43.216;27.946;2023-02-19T03:07:59;100630.31;;;14.67;52.98
38022;BME280;23832;43.216;27.946;2023-02-19T03:10:02;100627.84;;;14.65;53.02
38022;BME280;23832;43.216;27.946;2023-02-19T03:12:05;100625.38;;;14.64;53.04
38022;BME280;23832;43.216;27.946;2023-02-19T03:14:29;100630.06;;;14.62;53.01
38022;BME280;23832;43.216;27.946;2023-02-19T03:16:49;100627.63;;;14.60;53.00
38022;BME280;23832;43.216;27.946;2023-02-19T03:19:10;100628.63;;;14.59;52.92
38022;BME280;23832;43.216;27.946;2023-02-19T03:21:21;100629.66;;;14.58;53.03
38022;BME280;23832;43.216;27.946;2023-02-19T03:23:24;100620.88;;;14.58;52.99
38022;BME280;23832;43.216;27.946;2023-02-19T03:25:48;100628.19;;;14.56;53.02
38022;BME280;23832;43.216;27.946;2023-02-19T03:28:04;100624.13;;;14.53;52.99
38022;BME280;23832;43.216;27.946;2023-02-19T03:30:08;100625.97;;;14.53;53.07
38022;BME280;23832;43.216;27.946;2023-02-19T03:32:11;100627.78;;;14.52;53.01
38022;BME280;23832;43.216;27.946;2023-02-19T03:34:16;100628.81;;;14.51;52.95
38022;BME280;23832;43.216;27.946;2023-02-19T03:36:21;100627.19;;;14.50;53.03
38022;BME280;23832;43.216;27.946;2023-02-19T03:38:27;100632.47;;;14.50;53.12
38022;BME280;23832;43.216;27.946;2023-02-19T03:40:33;100635.34;;;14.48;52.86
38022;BME280;23832;43.216;27.946;2023-02-19T03:42:38;100639.81;;;14.48;53.13
38022;BME280;23832;43.216;27.946;2023-02-19T03:44:43;100635.53;;;14.47;53.11
38022;BME280;23832;43.216;27.946;2023-02-19T03:46:47;100640.00;;;14.46;53.07
38022;BME280;23832;43.216;27.946;2023-02-19T03:48:52;100626.94;;;14.45;53.00
38022;BME280;23832;43.216;27.946;2023-02-19T03:51:01;100638.53;;;14.44;53.11
38022;BME280;23832;43.216;27.946;2023-02-19T03:53:07;100627.94;;;14.44;53.00
38022;BME280;23832;43.216;27.946;2023-02-19T03:55:11;100634.47;;;14.41;53.02
38022;BME280;23832;43.216;27.946;2023-02-19T03:57:17;100640.16;;;14.38;53.21
38022;BME280;23832;43.216;27.946;2023-02-19T03:59:23;100635.03;;;14.37;53.03
38022;BME280;23832;43.216;27.946;2023-02-19T04:01:29;100631.16;;;14.33;53.27
38022;BME280;23832;43.216;27.946;2023-02-19T04:03:32;100644.41;;;14.33;53.09
38022;BME280;23832;43.216;27.946;2023-02-19T04:05:38;100666.66;;;14.32;53.35
38022;BME280;23832;43.216;27.946;2023-02-19T04:07:44;100651.09;;;14.29;53.20
38022;BME280;23832;43.216;27.946;2023-02-19T04:09:47;100660.91;;;14.28;53.28
38022;BME280;23832;43.216;27.946;2023-02-19T04:11:50;100670.06;;;14.26;53.38
38022;BME280;23832;43.216;27.946;2023-02-19T04:13:54;100677.41;;;14.24;53.22
38022;BME280;23832;43.216;27.946;2023-02-19T04:15:57;100678.63;;;14.21;53.53
38022;BME280;23832;43.216;27.946;2023-02-19T04:18:01;100674.50;;;14.18;53.80
38022;BME280;23832;43.216;27.946;2023-02-19T04:20:06;100674.50;;;14.18;53.19
38022;BME280;23832;43.216;27.946;2023-02-19T04:22:09;100681.03;;;14.16;53.30
38022;BME280;23832;43.216;27.946;2023-02-19T04:24:13;100679.41;;;14.15;53.23
38022;BME280;23832;43.216;27.946;2023-02-19T04:26:18;100680.63;;;14.12;53.28
38022;BME280;23832;43.216;27.946;2023-02-19T04:28:21;100678.16;;;14.11;53.29
38022;BME280;23832;43.216;27.946;2023-02-19T04:30:22;100677.31;;;14.10;53.27
38022;BME280;23832;43.216;27.946;2023-02-19T04:32:24;100638.25;;;13.91;53.19
38022;BME280;23832;43.216;27.946;2023-02-19T04:34:25;100665.09;;;14.09;53.11
38022;BME280;23832;43.216;27.946;2023-02-19T04:36:27;100657.34;;;14.08;52.81
38022;BME280;23832;43.216;27.946;2023-02-19T04:38:28;100650.41;;;14.07;52.71
38022;BME280;23832;43.216;27.946;2023-02-19T04:40:31;100646.94;;;14.06;52.88
38022;BME280;23832;43.216;27.946;2023-02-19T04:42:33;100643.25;;;14.07;52.64
38022;BME280;23832;43.216;27.946;2023-02-19T04:44:35;100647.53;;;14.08;52.82
38022;BME280;23832;43.216;27.946;2023-02-19T04:46:36;100657.94;;;14.10;52.48
38022;BME280;23832;43.216;27.946;2023-02-19T04:48:38;100663.06;;;14.11;52.54
38022;BME280;23832;43.216;27.946;2023-02-19T04:50:41;100663.91;;;14.12;52.48
38022;BME280;23832;43.216;27.946;2023-02-19T04:52:43;100663.50;;;14.15;52.06
38022;BME280;23832;43.216;27.946;2023-02-19T04:54:45;100673.09;;;14.16;52.06
38022;BME280;23832;43.216;27.946;2023-02-19T04:56:48;100668.59;;;14.16;52.04
38022;BME280;23832;43.216;27.946;2023-02-19T04:58:50;100675.34;;;14.19;51.85
38022;BME280;23832;43.216;27.946;2023-02-19T05:00:52;100685.78;;;14.20;51.57
38022;BME280;23832;43.216;27.946;2023-02-19T05:02:53;100688.84;;;14.24;51.43
38022;BME280;23832;43.216;27.946;2023-02-19T05:04:55;100702.91;;;14.25;51.08
38022;BME280;23832;43.216;27.946;2023-02-19T05:06:57;100700.88;;;14.27;51.20
38022;BME280;23832;43.216;27.946;2023-02-19T05:08:58;100699.84;;;14.28;51.15
38022;BME280;23832;43.216;27.946;2023-02-19T05:11:00;100703.16;;;14.30;50.87
38022;BME280;23832;43.216;27.946;2023-02-19T05:13:07;100700.91;;;14.33;50.82
38022;BME280;23832;43.216;27.946;2023-02-19T05:15:09;100703.19;;;14.36;51.18
38022;BME280;23832;43.216;27.946;2023-02-19T05:17:10;100710.34;;;14.42;51.09
38022;BME280;23832;43.216;27.946;2023-02-19T05:19:12;100717.56;;;14.48;50.93
38022;BME280;23832;43.216;27.946;2023-02-19T05:21:14;100720.88;;;14.57;50.79
38022;BME280;23832;43.216;27.946;2023-02-19T05:23:17;100727.00;;;14.64;50.90
38022;BME280;23832;43.216;27.946;2023-02-19T05:25:18;100741.75;;;14.73;50.85
38022;BME280;23832;43.216;27.946;2023-02-19T05:27:20;100734.66;;;14.81;50.74
38022;BME280;23832;43.216;27.946;2023-02-19T05:29:23;100736.53;;;14.87;50.36
38022;BME280;23832;43.216;27.946;2023-02-19T05:31:25;100749.38;;;14.90;50.14
38022;BME280;23832;43.216;27.946;2023-02-19T05:33:27;100754.94;;;14.95;49.66
38022;BME280;23832;43.216;27.946;2023-02-19T05:35:27;100764.75;;;15.01;49.34
38022;BME280;23832;43.216;27.946;2023-02-19T05:37:29;100772.72;;;15.08;49.72
38022;BME280;23832;43.216;27.946;2023-02-19T05:39:31;100778.69;;;15.16;49.68
38022;BME280;23832;43.216;27.946;2023-02-19T05:41:32;100784.44;;;15.26;49.66
38022;BME280;23832;43.216;27.946;2023-02-19T05:43:34;100794.50;;;15.38;50.09
38022;BME280;23832;43.216;27.946;2023-02-19T05:45:37;100797.19;;;15.51;49.80
38022;BME280;23832;43.216;27.946;2023-02-19T05:47:39;100795.22;;;15.66;49.58
38022;BME280;23832;43.216;27.946;2023-02-19T05:49:40;100798.69;;;15.80;49.36
38022;BME280;23832;43.216;27.946;2023-02-19T05:51:42;100819.78;;;15.95;49.06
38022;BME280;23832;43.216;27.946;2023-02-19T05:53:44;100801.78;;;16.10;48.83
38022;BME280;23832;43.216;27.946;2023-02-19T05:55:46;100805.03;;;16.25;48.80
38022;BME280;23832;43.216;27.946;2023-02-19T05:57:48;100808.50;;;16.39;48.63
38022;BME280;23832;43.216;27.946;2023-02-19T05:59:49;100809.13;;;16.54;48.36
38022;BME280;23832;43.216;27.946;2023-02-19T06:01:53;100814.22;;;16.69;47.93
38022;BME280;23832;43.216;27.946;2023-02-19T06:03:54;100820.94;;;16.85;47.87
38022;BME280;23832;43.216;27.946;2023-02-19T06:05:56;100826.63;;;17.01;47.67
38022;BME280;23832;43.216;27.946;2023-02-19T06:07:58;100829.63;;;17.18;47.39
38022;BME280;23832;43.216;27.946;2023-02-19T06:09:59;100832.66;;;17.35;47.04
38022;BME280;23832;43.216;27.946;2023-02-19T06:12:01;100828.88;;;17.49;46.65
38022;BME280;23832;43.216;27.946;2023-02-19T06:14:03;100830.00;;;17.67;46.53
38022;BME280;23832;43.216;27.946;2023-02-19T06:16:05;100825.22;;;17.82;46.11
38022;BME280;23832;43.216;27.946;2023-02-19T06:18:08;100822.03;;;17.98;45.94
38022;BME280;23832;43.216;27.946;2023-02-19T06:20:10;100829.69;;;18.13;45.33
38022;BME280;23832;43.216;27.946;2023-02-19T06:22:12;100828.34;;;18.29;45.02
38022;BME280;23832;43.216;27.946;2023-02-19T06:24:14;100828.44;;;18.40;44.44
38022;BME280;23832;43.216;27.946;2023-02-19T06:26:16;100836.34;;;18.54;44.32
38022;BME280;23832;43.216;27.946;2023-02-19T06:28:18;100853.06;;;18.67;44.07
38022;BME280;23832;43.216;27.946;2023-02-19T06:30:20;100852.13;;;18.80;43.86
38022;BME280;23832;43.216;27.946;2023-02-19T06:32:21;100854.41;;;18.95;43.80
38022;BME280;23832;43.216;27.946;2023-02-19T06:34:25;100855.31;;;19.07;43.58
38022;BME280;23832;43.216;27.946;2023-02-19T06:36:26;100838.88;;;19.22;43.22
38022;BME280;23832;43.216;27.946;2023-02-19T06:38:28;100835.47;;;19.33;42.56
38022;BME280;23832;43.216;27.946;2023-02-19T06:40:29;100823.78;;;19.46;42.36
38022;BME280;23832;43.216;27.946;2023-02-19T06:42:31;100816.47;;;19.53;41.82
38022;BME280;23832;43.216;27.946;2023-02-19T06:44:36;100823.16;;;19.62;41.41
38022;BME280;23832;43.216;27.946;2023-02-19T06:46:38;100821.44;;;19.68;41.33
38022;BME280;23832;43.216;27.946;2023-02-19T06:48:40;100834.47;;;19.76;41.15
38022;BME280;23832;43.216;27.946;2023-02-19T06:50:43;100843.00;;;19.84;41.15
38022;BME280;23832;43.216;27.946;2023-02-19T06:52:45;100854.78;;;19.95;40.97
38022;BME280;23832;43.216;27.946;2023-02-19T06:54:47;100852.56;;;20.04;40.98
38022;BME280;23832;43.216;27.946;2023-02-19T06:56:48;100864.81;;;20.11;40.79
38022;BME280;23832;43.216;27.946;2023-02-19T06:58:50;100863.44;;;20.21;40.56
38022;BME280;23832;43.216;27.946;2023-02-19T07:00:52;100859.59;;;20.28;40.34
38022;BME280;23832;43.216;27.946;2023-02-19T07:02:53;100849.59;;;20.35;40.27
38022;BME280;23832;43.216;27.946;2023-02-19T07:04:56;100851.72;;;20.45;40.35
38022;BME280;23832;43.216;27.946;2023-02-19T07:06:59;100844.16;;;20.54;40.02
38022;BME280;23832;43.216;27.946;2023-02-19T07:09:02;100835.19;;;20.60;40.05
38022;BME280;23832;43.216;27.946;2023-02-19T07:11:04;100833.22;;;20.67;39.92
38022;BME280;23832;43.216;27.946;2023-02-19T07:13:05;100834.13;;;20.73;39.99
38022;BME280;23832;43.216;27.946;2023-02-19T07:15:08;100834.00;;;20.79;39.61
38022;BME280;23832;43.216;27.946;2023-02-19T07:17:09;100839.00;;;20.87;40.10
38022;BME280;23832;43.216;27.946;2023-02-19T07:19:11;100849.38;;;20.95;39.60
38022;BME280;23832;43.216;27.946;2023-02-19T07:21:14;100872.31;;;21.03;39.65
38022;BME280;23832;43.216;27.946;2023-02-19T07:23:18;100858.31;;;21.13;39.66
38022;BME280;23832;43.216;27.946;2023-02-19T07:25:19;100860.69;;;21.26;39.75
38022;BME280;23832;43.216;27.946;2023-02-19T07:27:21;100863.72;;;21.41;39.64
38022;BME280;23832;43.216;27.946;2023-02-19T07:29:22;100868.78;;;21.54;39.60
38022;BME280;23832;43.216;27.946;2023-02-19T07:31:24;100845.94;;;21.52;39.01
38022;BME280;23832;43.216;27.946;2023-02-19T07:33:26;100864.72;;;21.80;38.94
38022;BME280;23832;43.216;27.946;2023-02-19T07:35:27;100875.38;;;21.92;38.60
38022;BME280;23832;43.216;27.946;2023-02-19T07:37:29;100869.16;;;22.03;38.27
38022;BME280;23832;43.216;27.946;2023-02-19T07:39:32;100872.59;;;22.16;38.15
38022;BME280;23832;43.216;27.946;2023-02-19T07:41:34;100864.22;;;22.29;38.09
38022;BME280;23832;43.216;27.946;2023-02-19T07:43:36;100872.03;;;22.47;38.36
38022;BME280;23832;43.216;27.946;2023-02-19T07:45:37;100881.19;;;22.68;38.23
38022;BME280;23832;43.216;27.946;2023-02-19T07:47:39;100875.31;;;22.88;37.87
38022;BME280;23832;43.216;27.946;2023-02-19T07:49:41;100871.25;;;23.07;37.67
38022;BME280;23832;43.216;27.946;2023-02-19T07:51:43;100868.84;;;23.28;38.00
38022;BME280;23832;43.216;27.946;2023-02-19T07:53:45;100871.78;;;23.53;37.92
38022;BME280;23832;43.216;27.946;2023-02-19T07:55:48;100877.53;;;23.84;38.44
38022;BME280;23832;43.216;27.946;2023-02-19T07:57:50;100868.63;;;24.15;37.83
38022;BME280;23832;43.216;27.946;2023-02-19T07:59:55;100867.28;;;24.45;37.24
38022;BME280;23832;43.216;27.946;2023-02-19T08:01:56;100851.19;;;24.60;36.16
38022;BME280;23832;43.216;27.946;2023-02-19T08:04:20;100851.84;;;24.72;34.79
38022;BME280;23832;43.216;27.946;2023-02-19T08:06:22;100839.47;;;24.81;34.65
38022;BME280;23832;43.216;27.946;2023-02-19T08:08:24;100834.41;;;24.95;34.54
38022;BME280;23832;43.216;27.946;2023-02-19T08:10:25;100833.69;;;25.10;34.41
38022;BME280;23832;43.216;27.946;2023-02-19T08:12:47;100834.00;;;25.34;34.23
38022;BME280;23832;43.216;27.946;2023-02-19T08:15:12;100827.84;;;25.59;34.09
38022;BME280;23832;43.216;27.946;2023-02-19T08:17:15;100831.44;;;25.80;33.47
38022;BME280;23832;43.216;27.946;2023-02-19T08:19:17;100832.81;;;25.97;33.30
38022;BME280;23832;43.216;27.946;2023-02-19T08:21:19;100830.59;;;26.15;32.89
38022;BME280;23832;43.216;27.946;2023-02-19T08:23:22;100825.75;;;26.27;32.39
38022;BME280;23832;43.216;27.946;2023-02-19T08:25:25;100820.06;;;26.44;32.04
38022;BME280;23832;43.216;27.946;2023-02-19T08:27:32;100824.63;;;26.58;31.71
38022;BME280;23832;43.216;27.946;2023-02-19T08:29:35;100821.06;;;26.73;31.67
38022;BME280;23832;43.216;27.946;2023-02-19T08:31:37;100834.25;;;26.90;31.87
38022;BME280;23832;43.216;27.946;2023-02-19T08:33:39;100824.75;;;27.08;31.72
38022;BME280;23832;43.216;27.946;2023-02-19T08:35:44;100814.38;;;27.25;31.28
38022;BME280;23832;43.216;27.946;2023-02-19T08:37:46;100814.22;;;27.46;31.34
38022;BME280;23832;43.216;27.946;2023-02-19T08:39:48;100816.53;;;27.67;31.17
38022;BME280;23832;43.216;27.946;2023-02-19T08:41:49;100817.19;;;27.88;30.79
38022;BME280;23832;43.216;27.946;2023-02-19T08:43:51;100817.81;;;28.09;30.71
38022;BME280;23832;43.216;27.946;2023-02-19T08:45:55;100820.38;;;28.30;30.43
38022;BME280;23832;43.216;27.946;2023-02-19T08:47:56;100815.84;;;28.49;30.21
38022;BME280;23832;43.216;27.946;2023-02-19T08:49:58;100809.88;;;28.71;29.91
38022;BME280;23832;43.216;27.946;2023-02-19T08:52:01;100817.56;;;28.88;29.46
38022;BME280;23832;43.216;27.946;2023-02-19T08:54:02;100799.22;;;29.03;29.09
38022;BME280;23832;43.216;27.946;2023-02-19T08:56:05;100799.50;;;29.21;29.37
38022;BME280;23832;43.216;27.946;2023-02-19T08:58:06;100804.94;;;29.39;29.00
38022;BME280;23832;43.216;27.946;2023-02-19T09:00:09;100800.53;;;29.62;28.81
38022;BME280;23832;43.216;27.946;2023-02-19T09:02:12;100790.38;;;29.68;28.68
38022;BME280;23832;43.216;27.946;2023-02-19T09:04:14;100804.56;;;29.98;28.16
38022;BME280;23832;43.216;27.946;2023-02-19T09:06:17;100790.25;;;30.11;27.67
38022;BME280;23832;43.216;27.946;2023-02-19T09:08:19;100795.69;;;30.24;28.01
38022;BME280;23832;43.216;27.946;2023-02-19T09:10:20;100804.44;;;30.35;27.52
38022;BME280;23832;43.216;27.946;2023-02-19T09:12:22;100807.78;;;30.46;27.03
38022;BME280;23832;43.216;27.946;2023-02-19T09:14:24;100794.56;;;30.53;27.00
38022;BME280;23832;43.216;27.946;2023-02-19T09:16:29;100803.34;;;30.64;27.30
38022;BME280;23832;43.216;27.946;2023-02-19T09:18:32;100799.84;;;30.77;26.95
38022;BME280;23832;43.216;27.946;2023-02-19T09:20:34;100809.41;;;30.88;26.96
38022;BME280;23832;43.216;27.946;2023-02-19T09:22:36;100816.75;;;31.01;26.79
38022;BME280;23832;43.216;27.946;2023-02-19T09:24:37;100805.50;;;31.17;26.96
38022;BME280;23832;43.216;27.946;2023-02-19T09:26:39;100804.56;;;31.35;26.43
38022;BME280;23832;43.216;27.946;2023-02-19T09:28:41;100815.94;;;31.51;26.97
38022;BME280;23832;43.216;27.946;2023-02-19T09:30:42;100828.25;;;31.71;26.59
38022;BME280;23832;43.216;27.946;2023-02-19T09:32:44;100826.16;;;31.90;26.44
38022;BME280;23832;43.216;27.946;2023-02-19T09:34:48;100823.84;;;32.06;25.74
38022;BME280;23832;43.216;27.946;2023-02-19T09:36:50;100827.75;;;32.13;25.20
38022;BME280;23832;43.216;27.946;2023-02-19T09:38:53;100836.09;;;32.08;24.83
38022;BME280;23832;43.216;27.946;2023-02-19T09:40:54;100835.25;;;32.08;25.21
38022;BME280;23832;43.216;27.946;2023-02-19T09:42:56;100832.41;;;32.13;25.67
38022;BME280;23832;43.216;27.946;2023-02-19T09:44:59;100836.63;;;32.19;24.93
38022;BME280;23832;43.216;27.946;2023-02-19T09:47:02;100827.13;;;32.16;24.75
38022;BME280;23832;43.216;27.946;2023-02-19T09:49:13;100832.28;;;32.18;24.99
38022;BME280;23832;43.216;27.946;2023-02-19T09:51:18;100822.50;;;32.26;25.02
38022;BME280;23832;43.216;27.946;2023-02-19T09:53:20;100830.81;;;32.43;25.42
38022;BME280;23832;43.216;27.946;2023-02-19T09:55:26;100815.16;;;32.66;25.22
38022;BME280;23832;43.216;27.946;2023-02-19T09:57:31;100805.59;;;32.86;24.70
38022;BME280;23832;43.216;27.946;2023-02-19T09:59:36;100807.44;;;33.08;24.91
38022;BME280;23832;43.216;27.946;2023-02-19T10:01:40;100807.25;;;33.30;24.88
38022;BME280;23832;43.216;27.946;2023-02-19T10:03:43;100796.84;;;33.49;24.23
38022;BME280;23832;43.216;27.946;2023-02-19T10:05:46;100795.34;;;33.69;24.30
38022;BME280;23832;43.216;27.946;2023-02-19T10:07:49;100797.44;;;33.90;24.24
38022;BME280;23832;43.216;27.946;2023-02-19T10:09:53;100790.13;;;34.11;24.03
38022;BME280;23832;43.216;27.946;2023-02-19T10:11:57;100789.06;;;34.33;24.06
38022;BME280;23832;43.216;27.946;2023-02-19T10:14:01;100800.13;;;34.54;23.57
38022;BME280;23832;43.216;27.946;2023-02-19T10:16:09;100786.47;;;34.75;23.93
38022;BME280;23832;43.216;27.946;2023-02-19T10:18:15;100780.19;;;34.74;22.21
38022;BME280;23832;43.216;27.946;2023-02-19T10:20:18;100782.28;;;34.48;22.22
38022;BME280;23832;43.216;27.946;2023-02-19T10:22:23;100784.72;;;33.94;21.49
38022;BME280;23832;43.216;27.946;2023-02-19T10:24:27;100779.81;;;33.52;21.98
38022;BME280;23832;43.216;27.946;2023-02-19T10:26:29;100768.06;;;33.17;22.38
38022;BME280;23832;43.216;27.946;2023-02-19T10:28:34;100767.81;;;32.79;22.42
38022;BME280;23832;43.216;27.946;2023-02-19T10:30:36;100754.13;;;32.53;22.63
38022;BME280;23832;43.216;27.946;2023-02-19T10:32:38;100761.84;;;32.20;22.52
38022;BME280;23832;43.216;27.946;2023-02-19T10:35:08;100746.13;;;31.86;22.85
38022;BME280;23832;43.216;27.946;2023-02-19T10:37:11;100754.63;;;31.62;23.19
38022;BME280;23832;43.216;27.946;2023-02-19T10:39:23;100754.94;;;31.38;23.33
38022;BME280;23832;43.216;27.946;2023-02-19T10:41:31;100739.81;;;31.10;23.27
38022;BME280;23832;43.216;27.946;2023-02-19T10:43:34;100746.69;;;30.93;23.64